Time;durP1;ratioP1;P1;durP2;ratioP2;P2;SDS_P1;SDS_P2;PMS_P1;PMS_P2;Temp;Humidity;BMP_temperature;BMP_pressure;BME280_temperature;BME280_humidity;BME280_pressure;Samples;Min_cycle;Max_cycle;Signal;HPM_P1;HPM_P2
2023/07/29 00:00:45;;;;;;;;;;;;;;;23.28;56.84;100665.38;5049855;28;19923;-79
2023/07/29 00:03:10;;;;;;;;;;;;;;;23.28;56.77;100668.97;5051927;28;19959;-79
2023/07/29 00:05:36;;;;;;;;;;;;;;;23.28;56.95;100666.25;5048062;28;20362;-79
2023/07/29 00:08:02;;;;;;;;;;;;;;;23.27;56.90;100661.84;5052209;28;20577;-79
2023/07/29 00:10:27;;;;;;;;;;;;;;;23.27;56.84;100664.53;5053462;28;20594;-79
2023/07/29 00:12:52;;;;;;;;;;;;;;;23.27;56.96;100664.53;5051273;28;20385;-79
2023/07/29 00:15:18;;;;;;;;;;;;;;;23.27;56.85;100664.53;5051972;28;19912;-79
2023/07/29 00:17:43;;;;;;;;;;;;;;;23.26;56.64;100660.16;5053035;28;19921;-79
2023/07/29 00:20:08;;;;;;;;;;;;;;;23.27;56.66;100663.72;5064631;28;19948;-79
2023/07/29 00:22:33;;;;;;;;;;;;;;;23.26;56.60;100660.16;5049907;28;19921;-79
2023/07/29 00:24:59;;;;;;;;;;;;;;;23.25;56.71;100661.22;5083966;28;19913;-78
2023/07/29 00:27:24;;;;;;;;;;;;;;;23.26;56.72;100654.75;5045752;28;19924;-79
2023/07/29 00:29:49;;;;;;;;;;;;;;;23.25;56.74;100653.06;5049118;28;19940;-79
2023/07/29 00:32:15;;;;;;;;;;;;;;;23.25;56.54;100652.25;5047961;28;19955;-79
2023/07/29 00:34:40;;;;;;;;;;;;;;;23.25;56.47;100652.25;5065815;28;19923;-79
2023/07/29 00:37:05;;;;;;;;;;;;;;;23.25;56.70;100650.38;5087825;28;19917;-79
2023/07/29 00:39:31;;;;;;;;;;;;;;;23.24;56.69;100648.69;5054693;28;19917;-79
2023/07/29 00:41:56;;;;;;;;;;;;;;;23.25;56.61;100654.97;5055529;28;19917;-79
2023/07/29 00:44:21;;;;;;;;;;;;;;;23.23;56.40;100647.00;5057269;28;19970;-79
2023/07/29 00:46:47;;;;;;;;;;;;;;;23.23;56.60;100640.75;5055186;28;20003;-79
2023/07/29 00:49:13;;;;;;;;;;;;;;;23.23;56.38;100640.75;5085242;28;19917;-79
2023/07/29 00:51:38;;;;;;;;;;;;;;;23.23;56.43;100641.56;5056114;28;19948;-79
2023/07/29 00:54:03;;;;;;;;;;;;;;;23.22;56.32;100631.78;5081849;28;19917;-79
2023/07/29 00:56:28;;;;;;;;;;;;;;;23.21;56.48;100630.13;5054176;28;19924;-79
2023/07/29 00:58:58;;;;;;;;;;;;;;;23.21;56.32;100635.53;5050911;28;19955;-79
2023/07/29 01:01:23;;;;;;;;;;;;;;;23.20;56.26;100629.28;5050362;28;19925;-79
2023/07/29 01:03:49;;;;;;;;;;;;;;;23.19;56.38;100627.63;5086958;28;19987;-79
2023/07/29 01:06:18;;;;;;;;;;;;;;;23.20;56.14;100625.72;5054314;28;19920;-78
2023/07/29 01:09:03;;;;;;;;;;;;;;;23.19;56.12;100624.03;5052924;28;20012;-79
2023/07/29 01:11:47;;;;;;;;;;;;;;;23.19;56.14;100624.91;5089060;28;19920;-79
2023/07/29 01:14:18;;;;;;;;;;;;;;;23.19;56.14;100621.31;5053968;28;19913;-79
2023/07/29 01:16:46;;;;;;;;;;;;;;;23.17;55.97;100615.28;5052044;28;19917;-79
2023/07/29 01:19:16;;;;;;;;;;;;;;;23.17;56.16;100621.53;5038626;28;19913;-78
2023/07/29 01:21:41;;;;;;;;;;;;;;;23.16;55.89;100619.88;5050110;28;19917;-78
2023/07/29 01:24:06;;;;;;;;;;;;;;;23.16;56.26;100609.03;5052768;28;20009;-79
2023/07/29 01:26:31;;;;;;;;;;;;;;;23.15;56.02;100611.94;5052217;28;19967;-78
2023/07/29 01:28:57;;;;;;;;;;;;;;;23.15;56.14;100623.63;5051612;28;19921;-78
2023/07/29 01:31:35;;;;;;;;;;;;;;;23.15;55.93;100636.34;5070033;28;19913;-79
2023/07/29 01:34:24;;;;;;;;;;;;;;;23.14;56.02;100627.38;5067256;28;19928;-79
2023/07/29 01:36:50;;;;;;;;;;;;;;;23.13;56.03;100641.13;5055538;28;19921;-79
2023/07/29 01:39:15;;;;;;;;;;;;;;;23.13;56.11;100646.56;5054515;28;19962;-78
2023/07/29 01:41:40;;;;;;;;;;;;;;;23.13;56.09;100639.25;5054030;28;19924;-78
2023/07/29 01:44:05;;;;;;;;;;;;;;;23.12;56.05;100639.47;5050289;28;19917;-78
2023/07/29 01:46:33;;;;;;;;;;;;;;;23.11;56.04;100622.38;5056371;28;20358;-79
2023/07/29 01:48:58;;;;;;;;;;;;;;;23.11;55.83;100616.94;5047707;28;19996;-79
2023/07/29 01:51:23;;;;;;;;;;;;;;;23.11;55.82;100607.97;5053757;28;19912;-78
2023/07/29 01:53:48;;;;;;;;;;;;;;;23.10;56.09;100604.41;5050330;28;19913;-79
2023/07/29 01:56:13;;;;;;;;;;;;;;;23.10;55.88;100603.56;5051068;28;19927;-78
2023/07/29 01:58:39;;;;;;;;;;;;;;;23.10;56.01;100600.84;5056226;28;19912;-79
2023/07/29 02:01:04;;;;;;;;;;;;;;;23.08;55.94;100592.94;5050814;28;19913;-79
2023/07/29 02:03:29;;;;;;;;;;;;;;;23.08;56.06;100614.63;5054301;28;19913;-78
2023/07/29 02:05:54;;;;;;;;;;;;;;;23.08;56.00;100622.78;5052082;28;19972;-79
2023/07/29 02:08:20;;;;;;;;;;;;;;;23.07;56.11;100609.41;5053939;28;19961;-78
2023/07/29 02:10:45;;;;;;;;;;;;;;;23.08;55.95;100616.50;5034272;28;19913;-78
2023/07/29 02:13:10;;;;;;;;;;;;;;;23.07;55.84;100609.41;5054343;28;19975;-79
2023/07/29 02:15:35;;;;;;;;;;;;;;;23.07;56.03;100609.41;5067531;28;19996;-78
2023/07/29 02:18:01;;;;;;;;;;;;;;;23.07;55.98;100610.25;5051574;28;20378;-78
2023/07/29 02:20:27;;;;;;;;;;;;;;;23.06;55.90;100605.00;5083436;28;19928;-78
2023/07/29 02:22:52;;;;;;;;;;;;;;;23.06;55.93;100605.00;5049703;28;19972;-79
2023/07/29 02:25:17;;;;;;;;;;;;;;;23.05;56.04;100601.47;5052189;28;20583;-79
2023/07/29 02:27:42;;;;;;;;;;;;;;;23.05;56.00;100600.63;5050895;28;20500;-79
2023/07/29 02:30:09;;;;;;;;;;;;;;;23.05;55.88;100589.78;5051635;28;19956;-79
2023/07/29 02:32:34;;;;;;;;;;;;;;;23.05;55.67;100584.38;5053765;28;19939;-79
2023/07/29 02:35:00;;;;;;;;;;;;;;;23.04;55.66;100586.25;5052892;28;19917;-79
2023/07/29 02:37:25;;;;;;;;;;;;;;;23.04;55.93;100590.84;5052817;28;20405;-79
2023/07/29 02:39:50;;;;;;;;;;;;;;;23.04;55.69;100593.56;5037448;28;20336;-79
2023/07/29 02:42:15;;;;;;;;;;;;;;;23.03;56.04;100597.31;5052022;28;20397;-78
2023/07/29 02:44:41;;;;;;;;;;;;;;;23.03;55.66;100603.56;5051704;28;20346;-79
2023/07/29 02:47:06;;;;;;;;;;;;;;;23.03;55.99;100602.72;5053324;28;20398;-79
2023/07/29 02:49:31;;;;;;;;;;;;;;;23.03;55.94;100602.72;5048950;28;20428;-79
2023/07/29 02:51:56;;;;;;;;;;;;;;;23.02;55.99;100598.31;5050969;28;19955;-78
2023/07/29 02:54:22;;;;;;;;;;;;;;;23.02;56.00;100604.59;5050880;28;19999;-79
2023/07/29 02:56:47;;;;;;;;;;;;;;;23.01;55.81;100600.22;5082803;28;20028;-78
2023/07/29 02:59:12;;;;;;;;;;;;;;;23.02;55.70;100599.16;5055471;28;19917;-79
2023/07/29 03:01:37;;;;;;;;;;;;;;;23.01;55.82;100586.66;5050691;28;19919;-79
2023/07/29 03:04:03;;;;;;;;;;;;;;;22.82;55.69;100555.69;5052316;28;19980;-78
2023/07/29 03:06:28;;;;;;;;;;;;;;;23.01;55.76;100585.81;5052373;28;19913;-79
2023/07/29 03:08:53;;;;;;;;;;;;;;;23.01;55.55;100581.22;5051675;28;19917;-79
2023/07/29 03:11:19;;;;;;;;;;;;;;;23.01;55.68;100585.81;5049597;28;19936;-79
2023/07/29 03:13:44;;;;;;;;;;;;;;;23.00;55.72;100586.88;5051171;28;19940;-78
2023/07/29 03:16:18;;;;;;;;;;;;;;;23.01;55.63;100583.09;5080773;28;19913;-78
2023/07/29 03:18:44;;;;;;;;;;;;;;;23.00;55.71;100586.88;5050832;28;19945;-79
2023/07/29 03:21:09;;;;;;;;;;;;;;;22.99;55.53;100587.91;5035125;28;19928;-79
2023/07/29 03:23:34;;;;;;;;;;;;;;;22.99;55.76;100580.59;5049639;28;19924;-77
2023/07/29 03:26:00;;;;;;;;;;;;;;;22.99;55.65;100580.59;5053125;28;19958;-79
2023/07/29 03:28:29;;;;;;;;;;;;;;;22.98;55.34;100575.38;5085217;28;19920;-79
2023/07/29 03:30:55;;;;;;;;;;;;;;;22.98;55.67;100569.94;5035558;28;19917;-79
2023/07/29 03:33:20;;;;;;;;;;;;;;;22.98;55.66;100567.25;5052196;28;19917;-79
2023/07/29 03:35:45;;;;;;;;;;;;;;;22.98;55.50;100572.66;5050534;28;19920;-79
2023/07/29 03:38:11;;;;;;;;;;;;;;;22.97;55.34;100569.13;5084046;28;19928;-79
2023/07/29 03:40:36;;;;;;;;;;;;;;;22.97;55.47;100566.41;5085725;28;20429;-79
2023/07/29 03:43:02;;;;;;;;;;;;;;;22.95;55.66;100568.50;5049427;28;19917;-79
2023/07/29 03:45:27;;;;;;;;;;;;;;;22.95;55.73;100573.91;5050741;28;19935;-79
2023/07/29 03:47:52;;;;;;;;;;;;;;;22.95;55.34;100568.50;5051871;28;19913;-79
2023/07/29 03:50:17;;;;;;;;;;;;;;;22.95;55.43;100569.34;5048549;28;20067;-79
2023/07/29 03:52:42;;;;;;;;;;;;;;;22.94;55.48;100569.53;5053556;28;20013;-79
2023/07/29 03:55:08;;;;;;;;;;;;;;;22.93;55.45;100576.81;5050661;28;19913;-79
2023/07/29 03:57:33;;;;;;;;;;;;;;;22.94;55.36;100566.84;5082605;28;20033;-79
2023/07/29 03:59:58;;;;;;;;;;;;;;;22.94;55.41;100572.25;5051507;28;19913;-79
2023/07/29 04:02:24;;;;;;;;;;;;;;;22.93;55.55;100571.41;5034453;28;19913;-79
2023/07/29 04:04:49;;;;;;;;;;;;;;;22.94;55.48;100569.53;5050326;28;19923;-78
2023/07/29 04:07:14;;;;;;;;;;;;;;;22.92;55.30;100571.59;5052153;28;19970;-79
2023/07/29 04:09:39;;;;;;;;;;;;;;;22.92;55.27;100563.47;5068346;28;19917;-79
2023/07/29 04:12:05;;;;;;;;;;;;;;;22.92;55.23;100569.72;5048472;28;19952;-79
2023/07/29 04:14:30;;;;;;;;;;;;;;;22.92;55.36;100563.47;5053493;28;19921;-79
2023/07/29 04:16:55;;;;;;;;;;;;;;;22.91;55.55;100559.94;5046400;28;19917;-78
2023/07/29 04:19:20;;;;;;;;;;;;;;;22.91;55.58;100568.06;5066871;28;19916;-79
2023/07/29 04:21:46;;;;;;;;;;;;;;;22.91;55.36;100564.53;5050702;28;19917;-79
2023/07/29 04:24:11;;;;;;;;;;;;;;;22.91;55.30;100561.81;5049513;28;19921;-78
2023/07/29 04:26:38;;;;;;;;;;;;;;;22.90;55.47;100560.16;5052565;28;20008;-78
2023/07/29 04:29:03;;;;;;;;;;;;;;;22.90;55.29;100566.41;5050983;28;19921;-78
2023/07/29 04:31:28;;;;;;;;;;;;;;;22.90;55.47;100563.69;5052055;28;19913;-78
2023/07/29 04:33:54;;;;;;;;;;;;;;;22.90;55.53;100568.28;5051642;28;19923;-77
2023/07/29 04:36:19;;;;;;;;;;;;;;;22.89;55.16;100563.84;5051695;28;19928;-76
2023/07/29 04:38:44;;;;;;;;;;;;;;;22.89;55.12;100564.66;5081294;28;19916;-76
2023/07/29 04:41:10;;;;;;;;;;;;;;;22.89;55.40;100571.97;5049744;28;19920;-78
2023/07/29 04:43:36;;;;;;;;;;;;;;;22.88;55.57;100563.00;5048803;28;19916;-77
2023/07/29 04:46:01;;;;;;;;;;;;;;;22.89;55.38;100559.25;5047577;28;19975;-78
2023/07/29 04:48:26;;;;;;;;;;;;;;;22.88;55.36;100556.75;5053735;28;19920;-79
2023/07/29 04:50:51;;;;;;;;;;;;;;;22.88;55.41;100554.88;5046433;28;19917;-77
2023/07/29 04:53:17;;;;;;;;;;;;;;;22.88;55.35;100556.75;5050977;28;19992;-76
2023/07/29 04:55:43;;;;;;;;;;;;;;;22.88;55.55;100549.44;5052406;28;19917;-77
2023/07/29 04:58:08;;;;;;;;;;;;;;;22.88;55.40;100540.50;5050374;28;19927;-77
2023/07/29 05:00:33;;;;;;;;;;;;;;;22.87;55.41;100541.53;5047798;28;19913;-76
2023/07/29 05:02:58;;;;;;;;;;;;;;;22.87;55.55;100544.25;5085538;28;20397;-76
2023/07/29 05:05:24;;;;;;;;;;;;;;;22.87;55.61;100552.38;5048620;28;19920;-76
2023/07/29 05:07:49;;;;;;;;;;;;;;;22.86;55.74;100556.97;5046431;28;19913;-77
2023/07/29 05:10:14;;;;;;;;;;;;;;;22.86;55.93;100567.81;5051304;28;19917;-77
2023/07/29 05:12:39;;;;;;;;;;;;;;;22.86;55.85;100572.41;5047259;28;19920;-77
2023/07/29 05:15:05;;;;;;;;;;;;;;;22.84;55.93;100580.72;5050494;28;19959;-77
2023/07/29 05:17:30;;;;;;;;;;;;;;;22.85;55.86;100585.13;5049721;28;19932;-77
2023/07/29 05:19:56;;;;;;;;;;;;;;;22.85;56.14;100589.69;5051064;28;19921;-78
2023/07/29 05:22:21;;;;;;;;;;;;;;;22.83;55.93;100587.19;5052730;28;19917;-76
2023/07/29 05:24:46;;;;;;;;;;;;;;;22.84;56.03;100596.16;5084090;28;19925;-75
2023/07/29 05:27:11;;;;;;;;;;;;;;;22.85;55.99;100595.09;5053703;28;19934;-75
2023/07/29 05:29:36;;;;;;;;;;;;;;;22.84;55.83;100596.97;5054198;28;19938;-77
2023/07/29 05:32:02;;;;;;;;;;;;;;;22.84;56.01;100591.56;5054025;28;19913;-76
2023/07/29 05:34:27;;;;;;;;;;;;;;;22.84;56.04;100588.84;5050870;28;19917;-76
2023/07/29 05:36:52;;;;;;;;;;;;;;;22.84;56.29;100596.97;5090069;28;19916;-75
2023/07/29 05:39:17;;;;;;;;;;;;;;;22.85;56.23;100598.69;5032742;28;19936;-77
2023/07/29 05:41:43;;;;;;;;;;;;;;;22.85;56.13;100592.38;5056394;28;19913;-78
2023/07/29 05:44:08;;;;;;;;;;;;;;;22.84;56.26;100594.28;5053086;28;19923;-78
2023/07/29 05:46:33;;;;;;;;;;;;;;;22.86;56.28;100607.63;5052680;28;19920;-78
2023/07/29 05:48:58;;;;;;;;;;;;;;;22.84;56.26;100609.69;5055726;28;19917;-77
2023/07/29 05:51:23;;;;;;;;;;;;;;;22.86;56.46;100604.94;5050832;28;20366;-78
2023/07/29 05:53:49;;;;;;;;;;;;;;;22.85;56.35;100603.22;5088100;28;19939;-75
2023/07/29 05:56:14;;;;;;;;;;;;;;;22.86;56.35;100602.22;5054772;28;20007;-77
2023/07/29 05:58:39;;;;;;;;;;;;;;;22.84;56.61;100599.69;5053186;28;19948;-78
2023/07/29 06:01:04;;;;;;;;;;;;;;;22.85;56.41;100614.94;5052038;28;19913;-78
2023/07/29 06:03:29;;;;;;;;;;;;;;;22.85;56.43;100609.53;5087724;28;20389;-78
2023/07/29 06:05:55;;;;;;;;;;;;;;;22.85;56.42;100614.06;5051450;28;19913;-78
2023/07/29 06:08:20;;;;;;;;;;;;;;;22.85;56.54;100612.22;5085989;28;19913;-78
2023/07/29 06:10:45;;;;;;;;;;;;;;;22.85;56.45;100614.94;5051319;28;19913;-77
2023/07/29 06:13:10;;;;;;;;;;;;;;;22.85;56.50;100627.63;5082443;28;19917;-77
2023/07/29 06:15:35;;;;;;;;;;;;;;;22.85;56.62;100612.22;5052612;28;19928;-76
2023/07/29 06:18:01;;;;;;;;;;;;;;;22.86;56.59;100618.50;5052115;28;20466;-77
2023/07/29 06:20:26;;;;;;;;;;;;;;;22.85;56.45;100636.63;5053749;28;19966;-77
2023/07/29 06:22:51;;;;;;;;;;;;;;;22.84;56.71;100632.22;5053805;28;19962;-78
2023/07/29 06:25:16;;;;;;;;;;;;;;;22.86;56.54;100626.63;5050996;28;19917;-72
2023/07/29 06:27:42;;;;;;;;;;;;;;;22.86;56.42;100632.03;5052110;28;19959;-75
2023/07/29 06:30:07;;;;;;;;;;;;;;;22.85;56.56;100623.06;5086934;28;19916;-77
2023/07/29 06:32:33;;;;;;;;;;;;;;;22.85;56.49;100623.06;5048593;28;19923;-77
2023/07/29 06:34:58;;;;;;;;;;;;;;;22.86;56.74;100618.50;5083136;28;19963;-77
2023/07/29 06:37:24;;;;;;;;;;;;;;;22.86;56.85;100629.31;5053619;28;20285;-78
2023/07/29 06:39:49;;;;;;;;;;;;;;;22.85;56.76;100627.63;5047247;28;19917;-77
2023/07/29 06:42:14;;;;;;;;;;;;;;;22.85;56.56;100627.63;5054627;28;19956;-75
2023/07/29 06:44:40;;;;;;;;;;;;;;;22.86;56.84;100619.31;5052941;28;19918;-75
2023/07/29 06:47:05;;;;;;;;;;;;;;;22.86;56.67;100613.06;5051216;28;19920;-75
2023/07/29 06:49:30;;;;;;;;;;;;;;;22.86;56.68;100616.59;5052922;28;19917;-74
2023/07/29 06:51:55;;;;;;;;;;;;;;;22.87;56.71;100614.72;5053698;28;19917;-74
2023/07/29 06:54:23;;;;;;;;;;;;;;;22.87;56.66;100610.13;5083901;28;20696;-74
2023/07/29 06:56:49;;;;;;;;;;;;;;;22.87;56.79;100614.72;5066125;28;19928;-74
2023/07/29 06:59:14;;;;;;;;;;;;;;;22.87;56.71;100615.56;5050622;28;19916;-74
2023/07/29 07:01:39;;;;;;;;;;;;;;;22.88;56.68;100608.25;5050640;28;19958;-74
2023/07/29 07:04:04;;;;;;;;;;;;;;;22.87;56.66;100607.44;5052505;28;20331;-75
2023/07/29 07:06:29;;;;;;;;;;;;;;;22.88;56.48;100610.97;5047923;28;20441;-74
2023/07/29 07:08:55;;;;;;;;;;;;;;;22.87;56.45;100603.88;5048279;28;19956;-76
2023/07/29 07:11:20;;;;;;;;;;;;;;;22.86;56.22;100603.06;5052235;28;19925;-76
2023/07/29 07:13:45;;;;;;;;;;;;;;;22.87;56.40;100603.88;5047167;28;19921;-76
2023/07/29 07:16:10;;;;;;;;;;;;;;;22.88;56.21;100608.25;5069373;28;19944;-75
2023/07/29 07:18:36;;;;;;;;;;;;;;;22.86;56.35;100600.34;5051691;28;19913;-75
2023/07/29 07:21:01;;;;;;;;;;;;;;;22.87;56.41;100596.59;5052757;28;19925;-75
2023/07/29 07:23:26;;;;;;;;;;;;;;;22.87;56.37;100606.59;5052451;28;20496;-78
2023/07/29 07:25:51;;;;;;;;;;;;;;;22.88;56.33;100610.97;5083300;28;20484;-79
2023/07/29 07:28:16;;;;;;;;;;;;;;;22.88;56.39;100614.50;5049208;28;20340;-77
2023/07/29 07:30:42;;;;;;;;;;;;;;;22.88;56.34;100621.81;5064575;28;20492;-78
2023/07/29 07:33:07;;;;;;;;;;;;;;;22.87;56.27;100623.69;5048542;28;19921;-78
2023/07/29 07:35:32;;;;;;;;;;;;;;;22.88;56.28;100633.50;5047800;28;19926;-76
2023/07/29 07:37:59;;;;;;;;;;;;;;;22.89;56.30;100628.91;5052147;28;19928;-78
2023/07/29 07:40:24;;;;;;;;;;;;;;;22.88;56.30;100638.06;5046128;28;19917;-75
2023/07/29 07:42:49;;;;;;;;;;;;;;;22.88;56.46;100633.50;5053406;28;19963;-76
2023/07/29 07:45:15;;;;;;;;;;;;;;;22.88;56.48;100636.19;5078056;28;19971;-77
2023/07/29 07:47:40;;;;;;;;;;;;;;;22.89;56.29;100637.88;5050592;28;19917;-75
2023/07/29 07:50:05;;;;;;;;;;;;;;;22.89;56.41;100637.88;5052980;28;19916;-73
2023/07/29 07:52:30;;;;;;;;;;;;;;;22.90;56.40;100638.75;5047193;28;19921;-73
2023/07/29 07:54:56;;;;;;;;;;;;;;;22.90;56.20;100638.75;5084552;28;19913;-74
2023/07/29 07:57:21;;;;;;;;;;;;;;;22.90;56.29;100638.75;5050848;28;19925;-76
2023/07/29 07:59:46;;;;;;;;;;;;;;;22.91;56.52;100640.44;5047140;28;19925;-73
2023/07/29 08:02:11;;;;;;;;;;;;;;;22.90;56.45;100639.59;5080666;28;19913;-74
2023/07/29 08:04:37;;;;;;;;;;;;;;;22.91;56.49;100641.25;5050712;28;19928;-74
2023/07/29 08:07:02;;;;;;;;;;;;;;;22.91;56.52;100645.84;5047237;28;20611;-74
2023/07/29 08:09:27;;;;;;;;;;;;;;;22.91;56.47;100652.09;5049652;28;20361;-75
2023/07/29 08:11:52;;;;;;;;;;;;;;;22.90;56.39;100639.59;5054226;28;19917;-75
2023/07/29 08:14:17;;;;;;;;;;;;;;;22.91;56.57;100653.97;5050210;28;19913;-74
2023/07/29 08:16:43;;;;;;;;;;;;;;;22.92;56.49;100647.53;5052022;28;20305;-74
2023/07/29 08:19:09;;;;;;;;;;;;;;;22.92;56.55;100658.38;5051922;28;20337;-74
2023/07/29 08:21:34;;;;;;;;;;;;;;;22.91;56.59;100656.69;5054070;28;19921;-74
2023/07/29 08:24:00;;;;;;;;;;;;;;;22.92;56.27;100647.53;5081972;28;20003;-75
2023/07/29 08:26:25;;;;;;;;;;;;;;;22.92;56.15;100644.81;5052973;28;19921;-74
2023/07/29 08:28:50;;;;;;;;;;;;;;;22.91;56.31;100643.97;5049646;28;19985;-74
2023/07/29 08:31:15;;;;;;;;;;;;;;;22.92;56.24;100645.63;5054729;28;19984;-74
2023/07/29 08:33:41;;;;;;;;;;;;;;;22.92;56.24;100642.09;5051476;28;19921;-74
2023/07/29 08:36:06;;;;;;;;;;;;;;;22.93;56.21;100646.47;5051539;28;19920;-74
2023/07/29 08:38:31;;;;;;;;;;;;;;;22.93;56.37;100641.06;5053580;28;19931;-74
2023/07/29 08:41:05;;;;;;;;;;;;;;;22.93;56.48;100644.59;5052929;28;20396;-74
2023/07/29 08:43:31;;;;;;;;;;;;;;;22.93;56.17;100643.75;5053655;28;19924;-74
2023/07/29 08:45:57;;;;;;;;;;;;;;;22.93;56.31;100638.34;5068965;28;19921;-75
2023/07/29 08:48:27;;;;;;;;;;;;;;;22.93;56.30;100641.88;5055208;28;19916;-74
2023/07/29 08:50:53;;;;;;;;;;;;;;;22.94;56.22;100645.47;5050162;28;19925;-74
2023/07/29 08:53:18;;;;;;;;;;;;;;;22.93;56.18;100650.00;5055859;28;20021;-74
2023/07/29 08:55:43;;;;;;;;;;;;;;;22.92;56.17;100653.78;5049127;28;19939;-73
2023/07/29 08:58:08;;;;;;;;;;;;;;;22.93;56.00;100651.88;5054861;28;20480;-74
2023/07/29 09:00:34;;;;;;;;;;;;;;;22.93;56.13;100660.03;5069965;28;20350;-74
2023/07/29 09:03:04;;;;;;;;;;;;;;;22.93;56.24;100652.72;5034950;28;19913;-74
2023/07/29 09:05:29;;;;;;;;;;;;;;;22.93;56.14;100655.44;5055673;28;19943;-73
2023/07/29 09:07:54;;;;;;;;;;;;;;;22.93;56.19;100649.19;5055658;28;20417;-75
2023/07/29 09:10:21;;;;;;;;;;;;;;;22.94;56.24;100653.59;5054853;28;20290;-75
2023/07/29 09:12:46;;;;;;;;;;;;;;;22.93;56.00;100655.44;5053246;28;19924;-74
2023/07/29 09:15:11;;;;;;;;;;;;;;;22.93;56.12;100658.16;5055065;28;19916;-75
2023/07/29 09:17:36;;;;;;;;;;;;;;;22.94;56.07;100661.72;5055010;28;19917;-77
2023/07/29 09:20:02;;;;;;;;;;;;;;;22.94;55.99;100665.28;5053463;28;19928;-77
2023/07/29 09:22:27;;;;;;;;;;;;;;;22.94;56.27;100656.31;5053181;28;19940;-75
2023/07/29 09:24:53;;;;;;;;;;;;;;;22.93;56.27;100646.47;5052508;28;19924;-76
2023/07/29 09:27:27;;;;;;;;;;;;;;;22.94;56.10;100657.13;5051754;28;19957;-76
2023/07/29 09:29:53;;;;;;;;;;;;;;;22.94;56.52;100650.88;5047886;28;20072;-76
2023/07/29 09:32:22;;;;;;;;;;;;;;;22.94;56.36;100650.88;5052547;28;19913;-76
2023/07/29 09:34:47;;;;;;;;;;;;;;;22.49;56.25;100577.22;5052105;28;19924;-75
2023/07/29 09:37:17;;;;;;;;;;;;;;;22.95;56.24;100645.25;5051369;28;19918;-76
2023/07/29 09:39:46;;;;;;;;;;;;;;;22.97;56.08;100636.91;5084204;28;19923;-76
2023/07/29 09:42:11;;;;;;;;;;;;;;;22.98;56.04;100635.88;5051852;28;19917;-76
2023/07/29 09:44:37;;;;;;;;;;;;;;;22.99;56.16;100650.28;5055732;28;19923;-75
2023/07/29 09:47:02;;;;;;;;;;;;;;;22.98;56.11;100644.03;5054679;28;19971;-75
2023/07/29 09:49:27;;;;;;;;;;;;;;;22.99;56.11;100642.13;5054034;28;19924;-75
2023/07/29 09:51:55;;;;;;;;;;;;;;;22.99;56.04;100637.53;5052217;28;19913;-76
2023/07/29 09:54:20;;;;;;;;;;;;;;;22.98;56.01;100646.72;5056778;28;20456;-75
2023/07/29 09:56:45;;;;;;;;;;;;;;;22.98;56.29;100638.59;5048928;28;19917;-76
2023/07/29 09:59:12;;;;;;;;;;;;;;;22.99;56.34;100644.84;5046870;28;19932;-75
2023/07/29 10:01:37;;;;;;;;;;;;;;;22.98;56.25;100643.16;5053301;28;19913;-75
2023/07/29 10:04:03;;;;;;;;;;;;;;;22.98;56.38;100641.31;5082238;28;19928;-76
2023/07/29 10:06:28;;;;;;;;;;;;;;;22.98;56.11;100641.31;5084540;28;19913;-75
2023/07/29 10:08:54;;;;;;;;;;;;;;;22.98;56.34;100638.59;5050831;28;19921;-75
2023/07/29 10:11:20;;;;;;;;;;;;;;;22.99;56.35;100634.00;5054722;28;19917;-75
2023/07/29 10:13:45;;;;;;;;;;;;;;;22.99;56.23;100639.44;5036166;28;20322;-75
2023/07/29 10:16:10;;;;;;;;;;;;;;;22.99;56.20;100642.13;5051724;28;19917;-76
2023/07/29 10:18:35;;;;;;;;;;;;;;;23.00;56.03;100643.81;5050894;28;19924;-75
2023/07/29 10:21:01;;;;;;;;;;;;;;;23.00;56.03;100643.81;5073020;28;20853;-76
2023/07/29 10:23:27;;;;;;;;;;;;;;;23.00;56.07;100641.09;5044982;28;20314;-75
2023/07/29 10:25:57;;;;;;;;;;;;;;;23.00;56.02;100639.22;5079351;28;19928;-75
2023/07/29 10:28:23;;;;;;;;;;;;;;;23.01;56.09;100640.03;5043901;28;19971;-75
2023/07/29 10:30:49;;;;;;;;;;;;;;;23.02;56.29;100642.53;5080600;28;19970;-75
2023/07/29 10:33:14;;;;;;;;;;;;;;;23.02;56.07;100636.28;5062802;28;19933;-76
2023/07/29 10:35:40;;;;;;;;;;;;;;;23.03;56.29;100637.97;5065692;28;19913;-75
2023/07/29 10:38:05;;;;;;;;;;;;;;;23.04;56.32;100645.06;5052429;28;19929;-75
2023/07/29 10:40:47;;;;;;;;;;;;;;;23.04;56.16;100634.22;5050260;28;19921;-75
2023/07/29 10:43:14;;;;;;;;;;;;;;;23.04;56.19;100645.91;5082772;28;19916;-75
2023/07/29 10:45:40;;;;;;;;;;;;;;;23.04;56.43;100651.31;5047903;28;19921;-75
2023/07/29 10:48:06;;;;;;;;;;;;;;;23.04;56.31;100643.19;5081193;28;19940;-75
2023/07/29 10:50:32;;;;;;;;;;;;;;;23.05;56.22;100639.44;5046891;28;19925;-76
2023/07/29 10:52:57;;;;;;;;;;;;;;;23.05;56.43;100644.03;5083071;28;19928;-75
2023/07/29 10:55:26;;;;;;;;;;;;;;;23.05;56.05;100644.03;5045135;28;19917;-75
2023/07/29 10:57:51;;;;;;;;;;;;;;;23.01;55.76;100661.75;5034082;28;20004;-74
2023/07/29 11:00:19;;;;;;;;;;;;;;;23.01;55.75;100656.31;5083746;28;19921;-74
2023/07/29 11:02:44;;;;;;;;;;;;;;;22.98;55.91;100654.88;5047106;28;19917;-75
2023/07/29 11:05:16;;;;;;;;;;;;;;;22.99;55.79;100652.97;5050308;28;19920;-76
2023/07/29 11:07:45;;;;;;;;;;;;;;;22.97;55.73;100658.59;5050926;28;19980;-77
2023/07/29 11:10:11;;;;;;;;;;;;;;;22.95;55.81;100666.09;5052254;28;19917;-76
2023/07/29 11:12:47;;;;;;;;;;;;;;;22.95;56.12;100674.22;5052429;28;19917;-75
2023/07/29 11:15:12;;;;;;;;;;;;;;;22.94;56.42;100665.28;5053354;28;20508;-76
2023/07/29 11:17:40;;;;;;;;;;;;;;;22.94;56.37;100653.59;5047447;28;19949;-76
2023/07/29 11:20:07;;;;;;;;;;;;;;;22.94;56.30;100654.41;5041078;28;19925;-78
2023/07/29 11:22:32;;;;;;;;;;;;;;;22.94;56.49;100659.00;5039654;28;19917;-76
2023/07/29 11:24:57;;;;;;;;;;;;;;;22.95;56.50;100656.09;5042047;28;19924;-79
2023/07/29 11:27:23;;;;;;;;;;;;;;;22.96;56.87;100654.22;5052103;28;19917;-78
2023/07/29 11:29:48;;;;;;;;;;;;;;;22.94;56.75;100667.97;5048866;28;19983;-75
2023/07/29 11:32:13;;;;;;;;;;;;;;;22.95;56.84;100663.38;5049569;28;19971;-75
2023/07/29 11:34:39;;;;;;;;;;;;;;;22.95;56.74;100658.81;5046092;28;19913;-77
2023/07/29 11:37:06;;;;;;;;;;;;;;;22.94;56.85;100654.41;5082499;28;19932;-78
2023/07/29 11:39:32;;;;;;;;;;;;;;;22.95;56.88;100657.97;5050334;28;19921;-78
2023/07/29 11:41:57;;;;;;;;;;;;;;;22.93;57.04;100650.00;5044056;28;19963;-77
2023/07/29 11:44:22;;;;;;;;;;;;;;;22.92;56.94;100650.22;5049328;28;19939;-80
2023/07/29 11:46:48;;;;;;;;;;;;;;;22.92;57.03;100651.06;5047670;28;19917;-73
2023/07/29 11:49:13;;;;;;;;;;;;;;;22.93;56.74;100641.88;5046180;28;19921;-78
2023/07/29 11:51:39;;;;;;;;;;;;;;;22.93;56.65;100657.31;5080265;28;19912;-78
2023/07/29 11:54:04;;;;;;;;;;;;;;;22.94;56.82;100654.41;5050800;28;19921;-79
2023/07/29 11:56:30;;;;;;;;;;;;;;;22.97;56.99;100655.03;5052006;28;19963;-74
2023/07/29 11:58:55;;;;;;;;;;;;;;;22.99;56.82;100653.81;5049674;28;20370;-76
2023/07/29 12:01:20;;;;;;;;;;;;;;;23.02;56.99;100652.56;5083976;28;19921;-78
2023/07/29 12:03:46;;;;;;;;;;;;;;;23.04;57.13;100653.22;5051184;28;20432;-78
2023/07/29 12:06:11;;;;;;;;;;;;;;;23.04;57.17;100651.31;5052427;28;19921;-78
2023/07/29 12:08:36;;;;;;;;;;;;;;;23.05;56.97;100653.00;5053320;28;19929;-79
2023/07/29 12:11:01;;;;;;;;;;;;;;;23.07;56.81;100650.94;5051486;28;19920;-77
2023/07/29 12:13:26;;;;;;;;;;;;;;;23.09;56.79;100650.72;5078486;28;19924;-76
2023/07/29 12:15:52;;;;;;;;;;;;;;;23.09;56.79;100648.84;5053409;28;19944;-76
2023/07/29 12:18:17;;;;;;;;;;;;;;;23.09;56.71;100659.69;5046264;28;19947;-75
2023/07/29 12:20:42;;;;;;;;;;;;;;;23.08;56.69;100652.59;5048017;28;20011;-78
2023/07/29 12:23:08;;;;;;;;;;;;;;;23.09;56.92;100650.72;5084562;28;20342;-78
2023/07/29 12:25:33;;;;;;;;;;;;;;;23.09;56.85;100653.44;5048652;28;19912;-78
2023/07/29 12:28:05;;;;;;;;;;;;;;;23.09;56.75;100658.84;5049228;28;19920;-78